Terminal Aerodrome Forecast
Issued by NWS

Home | Current Version | Previous Version | Graphics & Text | Print | Product List | Glossary On
Versions: 1 2 3 4 5 6 7 8 9 10 11 12 13 14 15 16 17 18 19 20
000
FTUS43 KPAH 260520
TAFOWB
TAF
KOWB 260520Z 2606/2706 04005KT P6SM OVC150
     FM261600 36006KT P6SM SCT050 BKN150
     FM270000 00000KT P6SM BKN200=

USA.gov is the U.S. government's official web portal to all federal, state and local government web resources and services.